松山國際航空站 - ATIS

METAR RCSS 161500Z 09004KT 040V130 9999 FEW010 BKN022 BKN035 18/15 Q1021 NOSIG RMK A3016=

站台狀態:Online
最後更新:2018-12-16 23:15:02